sensor_id;sensor_type;location;lat;lon;timestamp;noise_LAeq;noise_LA_min;noise_LA_max;noise_LA01;noise_LA95
76338;Laerm;20358;50.272;19.026;2023-06-22T00:03:03;42.51;38.97;51.98;;
76338;Laerm;20358;50.272;19.026;2023-06-22T00:06:13;41.41;37.95;52.57;;
76338;Laerm;20358;50.272;19.026;2023-06-22T00:09:21;41.41;37.55;54.15;;
76338;Laerm;20358;50.272;19.026;2023-06-22T00:12:27;43.23;38.38;58.15;;
76338;Laerm;20358;50.272;19.026;2023-06-22T00:15:41;41.74;37.71;54.58;;
76338;Laerm;20358;50.272;19.026;2023-06-22T00:18:48;43.92;37.78;56.34;;
76338;Laerm;20358;50.272;19.026;2023-06-22T00:21:58;42.30;38.60;56.73;;
76338;Laerm;20358;50.272;19.026;2023-06-22T00:25:08;42.69;38.81;57.93;;
76338;Laerm;20358;50.272;19.026;2023-06-22T00:28:18;42.05;38.67;51.70;;
76338;Laerm;20358;50.272;19.026;2023-06-22T00:31:26;43.05;38.30;59.08;;
76338;Laerm;20358;50.272;19.026;2023-06-22T00:34:34;40.98;37.50;54.30;;
76338;Laerm;20358;50.272;19.026;2023-06-22T00:37:45;41.77;38.91;52.48;;
76338;Laerm;20358;50.272;19.026;2023-06-22T00:40:53;42.42;37.39;56.59;;
76338;Laerm;20358;50.272;19.026;2023-06-22T00:44:00;46.89;37.37;59.04;;
76338;Laerm;20358;50.272;19.026;2023-06-22T00:47:13;46.04;38.40;59.65;;
76338;Laerm;20358;50.272;19.026;2023-06-22T00:50:25;41.38;37.80;52.90;;
76338;Laerm;20358;50.272;19.026;2023-06-22T00:53:37;44.19;37.74;60.33;;
76338;Laerm;20358;50.272;19.026;2023-06-22T00:56:44;42.92;38.22;54.65;;
76338;Laerm;20358;50.272;19.026;2023-06-22T00:59:54;41.42;37.74;55.11;;
76338;Laerm;20358;50.272;19.026;2023-06-22T01:03:02;43.51;37.74;58.24;;
76338;Laerm;20358;50.272;19.026;2023-06-22T01:06:26;45.13;38.15;61.62;;
76338;Laerm;20358;50.272;19.026;2023-06-22T01:09:57;43.29;38.22;57.91;;
76338;Laerm;20358;50.272;19.026;2023-06-22T01:13:20;45.98;39.10;61.11;;
76338;Laerm;20358;50.272;19.026;2023-06-22T01:16:35;48.65;38.05;57.01;;
76338;Laerm;20358;50.272;19.026;2023-06-22T01:19:46;48.47;38.23;63.23;;
76338;Laerm;20358;50.272;19.026;2023-06-22T01:23:14;47.19;39.19;61.83;;
76338;Laerm;20358;50.272;19.026;2023-06-22T01:26:39;44.14;38.08;55.21;;
76338;Laerm;20358;50.272;19.026;2023-06-22T01:29:56;44.93;38.76;64.10;;
76338;Laerm;20358;50.272;19.026;2023-06-22T01:33:12;43.48;37.80;59.94;;
76338;Laerm;20358;50.272;19.026;2023-06-22T01:36:23;42.55;38.59;55.20;;
76338;Laerm;20358;50.272;19.026;2023-06-22T01:39:32;43.19;38.73;61.66;;
76338;Laerm;20358;50.272;19.026;2023-06-22T01:42:43;42.44;38.07;54.62;;
76338;Laerm;20358;50.272;19.026;2023-06-22T01:45:55;46.87;38.20;66.46;;
76338;Laerm;20358;50.272;19.026;2023-06-22T01:49:05;44.25;38.51;57.42;;
76338;Laerm;20358;50.272;19.026;2023-06-22T01:52:14;41.94;37.99;56.13;;
76338;Laerm;20358;50.272;19.026;2023-06-22T01:55:22;42.75;38.44;51.74;;
76338;Laerm;20358;50.272;19.026;2023-06-22T01:58:32;42.50;38.78;58.48;;
76338;Laerm;20358;50.272;19.026;2023-06-22T02:01:56;59.59;39.12;82.71;;
76338;Laerm;20358;50.272;19.026;2023-06-22T02:05:12;66.97;38.20;90.18;;
76338;Laerm;20358;50.272;19.026;2023-06-22T02:08:32;43.42;37.83;59.45;;
76338;Laerm;20358;50.272;19.026;2023-06-22T02:11:46;41.84;38.73;51.54;;
76338;Laerm;20358;50.272;19.026;2023-06-22T02:14:57;46.63;38.08;60.39;;
76338;Laerm;20358;50.272;19.026;2023-06-22T02:18:08;44.48;38.18;56.55;;
76338;Laerm;20358;50.272;19.026;2023-06-22T02:21:16;45.72;39.97;57.59;;
76338;Laerm;20358;50.272;19.026;2023-06-22T02:24:23;51.65;39.10;59.51;;
76338;Laerm;20358;50.272;19.026;2023-06-22T02:27:31;46.06;38.90;56.90;;
76338;Laerm;20358;50.272;19.026;2023-06-22T02:30:38;47.29;39.11;62.38;;
76338;Laerm;20358;50.272;19.026;2023-06-22T02:33:48;46.37;39.19;63.67;;
76338;Laerm;20358;50.272;19.026;2023-06-22T02:37:00;45.90;39.38;64.98;;
76338;Laerm;20358;50.272;19.026;2023-06-22T02:40:10;46.96;39.27;59.59;;
76338;Laerm;20358;50.272;19.026;2023-06-22T02:43:17;46.67;39.08;61.59;;
76338;Laerm;20358;50.272;19.026;2023-06-22T02:46:25;48.21;40.23;60.02;;
76338;Laerm;20358;50.272;19.026;2023-06-22T02:49:36;45.84;38.69;57.42;;
76338;Laerm;20358;50.272;19.026;2023-06-22T02:52:50;49.81;39.30;65.74;;
76338;Laerm;20358;50.272;19.026;2023-06-22T02:56:01;47.90;38.88;61.99;;
76338;Laerm;20358;50.272;19.026;2023-06-22T02:59:14;48.10;38.86;60.72;;
76338;Laerm;20358;50.272;19.026;2023-06-22T03:02:21;47.28;40.22;58.27;;
76338;Laerm;20358;50.272;19.026;2023-06-22T03:05:33;47.43;39.88;59.45;;
76338;Laerm;20358;50.272;19.026;2023-06-22T03:08:41;47.75;39.72;64.28;;
76338;Laerm;20358;50.272;19.026;2023-06-22T03:11:49;49.74;40.85;63.88;;
76338;Laerm;20358;50.272;19.026;2023-06-22T03:14:57;48.99;39.90;59.38;;
76338;Laerm;20358;50.272;19.026;2023-06-22T03:18:05;49.10;40.36;61.72;;
76338;Laerm;20358;50.272;19.026;2023-06-22T03:21:17;47.71;40.33;62.19;;
76338;Laerm;20358;50.272;19.026;2023-06-22T03:24:26;66.99;41.85;88.05;;
76338;Laerm;20358;50.272;19.026;2023-06-22T03:27:33;50.07;41.07;62.78;;
76338;Laerm;20358;50.272;19.026;2023-06-22T03:30:43;48.82;39.58;59.78;;
76338;Laerm;20358;50.272;19.026;2023-06-22T03:33:51;51.22;39.96;65.77;;
76338;Laerm;20358;50.272;19.026;2023-06-22T03:37:03;50.53;41.47;65.25;;
76338;Laerm;20358;50.272;19.026;2023-06-22T03:40:12;54.52;41.49;68.16;;
76338;Laerm;20358;50.272;19.026;2023-06-22T03:43:20;53.44;41.61;66.46;;
76338;Laerm;20358;50.272;19.026;2023-06-22T03:46:27;51.53;40.82;67.79;;
76338;Laerm;20358;50.272;19.026;2023-06-22T03:49:36;51.83;41.94;60.82;;
76338;Laerm;20358;50.272;19.026;2023-06-22T03:52:46;52.28;42.57;64.64;;
76338;Laerm;20358;50.272;19.026;2023-06-22T03:55:56;50.64;41.57;60.85;;
76338;Laerm;20358;50.272;19.026;2023-06-22T03:59:08;52.44;44.20;68.46;;
76338;Laerm;20358;50.272;19.026;2023-06-22T04:02:19;51.50;42.26;63.11;;
76338;Laerm;20358;50.272;19.026;2023-06-22T04:05:27;52.73;45.10;65.02;;
76338;Laerm;20358;50.272;19.026;2023-06-22T04:08:37;52.34;42.48;67.51;;
76338;Laerm;20358;50.272;19.026;2023-06-22T04:11:44;51.67;43.51;60.67;;
76338;Laerm;20358;50.272;19.026;2023-06-22T04:18:51;50.45;42.10;64.30;;
76338;Laerm;20358;50.272;19.026;2023-06-22T04:21:59;52.06;43.77;65.52;;
76338;Laerm;20358;50.272;19.026;2023-06-22T04:25:08;54.17;42.17;67.57;;
76338;Laerm;20358;50.272;19.026;2023-06-22T04:28:16;53.42;43.33;71.44;;
76338;Laerm;20358;50.272;19.026;2023-06-22T04:31:23;53.19;41.67;68.08;;
76338;Laerm;20358;50.272;19.026;2023-06-22T04:34:36;51.33;44.90;59.21;;
76338;Laerm;20358;50.272;19.026;2023-06-22T04:37:44;53.55;44.04;66.20;;
76338;Laerm;20358;50.272;19.026;2023-06-22T04:41:09;50.42;42.77;60.14;;
76338;Laerm;20358;50.272;19.026;2023-06-22T04:44:22;52.88;44.08;69.60;;
76338;Laerm;20358;50.272;19.026;2023-06-22T04:47:37;53.31;45.53;70.38;;
76338;Laerm;20358;50.272;19.026;2023-06-22T04:50:45;51.44;44.37;67.40;;
76338;Laerm;20358;50.272;19.026;2023-06-22T04:53:53;53.81;44.54;68.11;;
76338;Laerm;20358;50.272;19.026;2023-06-22T04:57:10;54.51;46.07;68.58;;
76338;Laerm;20358;50.272;19.026;2023-06-22T05:00:26;51.66;43.09;65.31;;
76338;Laerm;20358;50.272;19.026;2023-06-22T05:03:34;51.42;45.43;68.65;;
76338;Laerm;20358;50.272;19.026;2023-06-22T05:06:50;50.52;43.38;56.85;;
76338;Laerm;20358;50.272;19.026;2023-06-22T05:10:00;51.56;43.93;60.10;;
76338;Laerm;20358;50.272;19.026;2023-06-22T05:13:12;51.64;45.64;62.94;;
76338;Laerm;20358;50.272;19.026;2023-06-22T05:16:22;53.17;43.63;73.65;;
76338;Laerm;20358;50.272;19.026;2023-06-22T05:19:30;52.50;45.08;65.86;;
76338;Laerm;20358;50.272;19.026;2023-06-22T05:22:41;53.17;45.74;67.27;;
76338;Laerm;20358;50.272;19.026;2023-06-22T05:30:18;53.93;46.45;66.56;;
76338;Laerm;20358;50.272;19.026;2023-06-22T05:34:12;53.70;45.62;66.50;;
76338;Laerm;20358;50.272;19.026;2023-06-22T05:38:30;55.40;46.76;73.19;;
76338;Laerm;20358;50.272;19.026;2023-06-22T05:42:25;53.37;45.74;64.86;;
76338;Laerm;20358;50.272;19.026;2023-06-22T05:46:16;51.36;44.94;62.25;;
76338;Laerm;20358;50.272;19.026;2023-06-22T05:49:51;51.36;45.16;68.36;;
76338;Laerm;20358;50.272;19.026;2023-06-22T05:53:16;52.28;44.41;71.67;;
76338;Laerm;20358;50.272;19.026;2023-06-22T05:56:27;52.65;44.61;76.89;;
76338;Laerm;20358;50.272;19.026;2023-06-22T05:59:40;53.44;45.64;70.39;;
76338;Laerm;20358;50.272;19.026;2023-06-22T06:02:51;51.72;45.26;66.38;;
76338;Laerm;20358;50.272;19.026;2023-06-22T06:06:12;52.49;44.99;68.65;;
76338;Laerm;20358;50.272;19.026;2023-06-22T06:09:33;52.54;45.36;69.80;;
76338;Laerm;20358;50.272;19.026;2023-06-22T06:12:43;54.60;46.26;68.62;;
76338;Laerm;20358;50.272;19.026;2023-06-22T06:15:57;55.45;44.61;74.33;;
76338;Laerm;20358;50.272;19.026;2023-06-22T06:19:15;54.89;46.20;72.31;;
76338;Laerm;20358;50.272;19.026;2023-06-22T06:22:26;54.80;44.93;80.13;;
76338;Laerm;20358;50.272;19.026;2023-06-22T06:25:34;54.13;44.91;73.91;;
76338;Laerm;20358;50.272;19.026;2023-06-22T06:28:47;54.65;45.04;75.48;;
76338;Laerm;20358;50.272;19.026;2023-06-22T06:31:56;51.40;43.85;65.73;;
76338;Laerm;20358;50.272;19.026;2023-06-22T06:35:09;50.83;44.07;67.52;;
76338;Laerm;20358;50.272;19.026;2023-06-22T06:38:24;50.48;44.47;62.29;;
76338;Laerm;20358;50.272;19.026;2023-06-22T06:41:32;50.10;43.54;65.11;;
76338;Laerm;20358;50.272;19.026;2023-06-22T06:44:40;51.51;44.74;59.70;;
76338;Laerm;20358;50.272;19.026;2023-06-22T06:47:54;52.31;45.91;68.29;;
76338;Laerm;20358;50.272;19.026;2023-06-22T06:51:06;52.69;45.74;67.04;;
76338;Laerm;20358;50.272;19.026;2023-06-22T06:54:25;53.08;44.11;66.14;;
76338;Laerm;20358;50.272;19.026;2023-06-22T06:57:33;51.57;44.77;64.54;;
76338;Laerm;20358;50.272;19.026;2023-06-22T07:00:44;52.79;44.54;65.39;;
76338;Laerm;20358;50.272;19.026;2023-06-22T07:03:54;51.36;45.27;62.58;;
76338;Laerm;20358;50.272;19.026;2023-06-22T07:07:11;50.61;43.47;60.18;;
76338;Laerm;20358;50.272;19.026;2023-06-22T07:10:24;51.09;44.20;67.85;;
76338;Laerm;20358;50.272;19.026;2023-06-22T07:13:36;49.93;43.94;59.07;;
76338;Laerm;20358;50.272;19.026;2023-06-22T07:16:43;51.76;44.18;63.32;;
76338;Laerm;20358;50.272;19.026;2023-06-22T07:19:52;50.38;43.86;58.01;;
76338;Laerm;20358;50.272;19.026;2023-06-22T07:23:02;50.62;43.61;59.89;;
76338;Laerm;20358;50.272;19.026;2023-06-22T07:26:24;50.95;43.02;61.69;;
76338;Laerm;20358;50.272;19.026;2023-06-22T07:29:31;50.17;44.45;61.41;;
76338;Laerm;20358;50.272;19.026;2023-06-22T07:32:51;50.15;43.24;58.28;;
76338;Laerm;20358;50.272;19.026;2023-06-22T07:35:58;51.55;44.43;69.96;;
76338;Laerm;20358;50.272;19.026;2023-06-22T07:39:15;51.12;44.14;68.04;;
76338;Laerm;20358;50.272;19.026;2023-06-22T07:42:22;51.09;43.41;74.67;;
76338;Laerm;20358;50.272;19.026;2023-06-22T07:45:30;50.26;43.76;59.79;;
76338;Laerm;20358;50.272;19.026;2023-06-22T07:48:39;51.31;44.75;63.62;;
76338;Laerm;20358;50.272;19.026;2023-06-22T07:52:00;50.21;43.19;58.44;;
76338;Laerm;20358;50.272;19.026;2023-06-22T07:55:14;49.78;43.14;61.05;;
76338;Laerm;20358;50.272;19.026;2023-06-22T07:58:30;50.13;42.37;64.27;;
76338;Laerm;20358;50.272;19.026;2023-06-22T08:01:43;50.76;43.53;58.18;;
76338;Laerm;20358;50.272;19.026;2023-06-22T08:05:06;49.61;43.27;60.61;;
76338;Laerm;20358;50.272;19.026;2023-06-22T08:08:22;52.64;44.62;64.04;;
76338;Laerm;20358;50.272;19.026;2023-06-22T08:11:38;50.84;43.57;61.48;;
76338;Laerm;20358;50.272;19.026;2023-06-22T08:14:44;49.03;43.00;59.40;;
76338;Laerm;20358;50.272;19.026;2023-06-22T08:17:52;51.47;42.53;70.27;;
76338;Laerm;20358;50.272;19.026;2023-06-22T08:21:00;49.44;43.11;59.11;;
76338;Laerm;20358;50.272;19.026;2023-06-22T08:24:11;49.92;42.64;58.06;;
76338;Laerm;20358;50.272;19.026;2023-06-22T08:27:24;49.91;43.88;57.97;;
76338;Laerm;20358;50.272;19.026;2023-06-22T08:30:33;49.65;42.75;62.79;;
76338;Laerm;20358;50.272;19.026;2023-06-22T08:33:42;50.36;43.17;61.12;;
76338;Laerm;20358;50.272;19.026;2023-06-22T08:36:53;51.59;43.31;65.28;;
76338;Laerm;20358;50.272;19.026;2023-06-22T08:40:11;51.00;44.33;66.73;;
76338;Laerm;20358;50.272;19.026;2023-06-22T08:43:22;51.11;42.98;70.93;;
76338;Laerm;20358;50.272;19.026;2023-06-22T08:46:36;50.58;42.67;67.68;;
76338;Laerm;20358;50.272;19.026;2023-06-22T08:49:45;53.67;44.13;70.42;;
76338;Laerm;20358;50.272;19.026;2023-06-22T08:52:52;53.10;43.32;71.56;;
76338;Laerm;20358;50.272;19.026;2023-06-22T08:56:02;50.31;44.30;58.46;;
76338;Laerm;20358;50.272;19.026;2023-06-22T08:59:15;49.95;44.21;60.75;;
76338;Laerm;20358;50.272;19.026;2023-06-22T09:02:25;52.03;44.19;64.33;;
76338;Laerm;20358;50.272;19.026;2023-06-22T09:05:37;49.48;41.96;59.52;;
76338;Laerm;20358;50.272;19.026;2023-06-22T09:08:47;52.05;44.50;70.32;;
76338;Laerm;20358;50.272;19.026;2023-06-22T09:11:54;51.06;43.01;67.54;;
76338;Laerm;20358;50.272;19.026;2023-06-22T09:15:13;53.62;42.04;77.49;;
76338;Laerm;20358;50.272;19.026;2023-06-22T09:18:31;51.65;42.44;59.48;;
76338;Laerm;20358;50.272;19.026;2023-06-22T09:21:41;50.17;42.62;60.73;;
76338;Laerm;20358;50.272;19.026;2023-06-22T09:24:58;50.43;43.15;62.54;;
76338;Laerm;20358;50.272;19.026;2023-06-22T09:28:17;50.72;44.79;58.69;;
76338;Laerm;20358;50.272;19.026;2023-06-22T09:31:35;51.92;43.00;65.51;;
76338;Laerm;20358;50.272;19.026;2023-06-22T09:34:43;50.39;42.58;62.58;;
76338;Laerm;20358;50.272;19.026;2023-06-22T09:37:50;51.46;42.40;76.93;;
76338;Laerm;20358;50.272;19.026;2023-06-22T09:41:01;54.75;44.08;65.29;;
76338;Laerm;20358;50.272;19.026;2023-06-22T09:44:09;51.21;44.43;69.40;;
76338;Laerm;20358;50.272;19.026;2023-06-22T09:47:28;52.07;43.75;77.68;;
76338;Laerm;20358;50.272;19.026;2023-06-22T09:50:35;50.13;43.48;67.02;;
76338;Laerm;20358;50.272;19.026;2023-06-22T09:53:43;51.43;42.71;60.79;;
76338;Laerm;20358;50.272;19.026;2023-06-22T09:56:52;51.13;44.45;61.23;;
76338;Laerm;20358;50.272;19.026;2023-06-22T10:00:04;50.73;44.48;60.75;;
76338;Laerm;20358;50.272;19.026;2023-06-22T10:03:17;50.87;44.12;62.25;;
76338;Laerm;20358;50.272;19.026;2023-06-22T10:06:28;50.10;42.96;61.83;;
76338;Laerm;20358;50.272;19.026;2023-06-22T10:09:38;51.72;44.69;67.65;;
76338;Laerm;20358;50.272;19.026;2023-06-22T10:13:06;52.40;42.32;65.68;;
76338;Laerm;20358;50.272;19.026;2023-06-22T10:16:15;49.90;41.99;62.14;;
76338;Laerm;20358;50.272;19.026;2023-06-22T10:19:26;48.81;42.66;57.96;;
76338;Laerm;20358;50.272;19.026;2023-06-22T10:22:37;50.67;43.98;65.45;;
76338;Laerm;20358;50.272;19.026;2023-06-22T10:25:50;52.75;43.78;65.70;;
76338;Laerm;20358;50.272;19.026;2023-06-22T10:28:59;50.46;43.49;61.31;;
76338;Laerm;20358;50.272;19.026;2023-06-22T10:32:10;51.98;43.05;71.11;;
76338;Laerm;20358;50.272;19.026;2023-06-22T10:35:23;49.89;42.61;68.83;;
76338;Laerm;20358;50.272;19.026;2023-06-22T10:38:36;50.57;42.49;65.39;;
76338;Laerm;20358;50.272;19.026;2023-06-22T10:41:49;50.38;43.60;77.90;;
76338;Laerm;20358;50.272;19.026;2023-06-22T10:45:07;51.50;43.20;64.76;;
76338;Laerm;20358;50.272;19.026;2023-06-22T10:48:15;51.78;43.19;71.22;;
76338;Laerm;20358;50.272;19.026;2023-06-22T10:51:28;53.11;42.16;66.78;;
76338;Laerm;20358;50.272;19.026;2023-06-22T10:54:39;54.86;41.22;70.15;;
76338;Laerm;20358;50.272;19.026;2023-06-22T10:57:49;55.63;41.66;71.83;;
76338;Laerm;20358;50.272;19.026;2023-06-22T11:01:01;53.20;41.89;71.79;;
76338;Laerm;20358;50.272;19.026;2023-06-22T11:04:35;50.68;43.25;65.77;;
76338;Laerm;20358;50.272;19.026;2023-06-22T11:07:47;49.73;42.81;58.08;;
76338;Laerm;20358;50.272;19.026;2023-06-22T11:10:55;49.75;42.94;56.96;;
76338;Laerm;20358;50.272;19.026;2023-06-22T11:14:04;52.78;42.41;64.60;;
76338;Laerm;20358;50.272;19.026;2023-06-22T11:17:15;51.45;41.52;63.67;;
76338;Laerm;20358;50.272;19.026;2023-06-22T11:20:24;51.49;41.79;68.91;;
76338;Laerm;20358;50.272;19.026;2023-06-22T11:23:41;52.08;43.67;63.64;;
76338;Laerm;20358;50.272;19.026;2023-06-22T11:26:52;51.31;43.06;66.92;;
76338;Laerm;20358;50.272;19.026;2023-06-22T11:30:06;51.65;43.45;69.31;;
76338;Laerm;20358;50.272;19.026;2023-06-22T11:33:14;49.69;44.01;56.67;;
76338;Laerm;20358;50.272;19.026;2023-06-22T11:36:25;56.52;41.10;79.56;;
76338;Laerm;20358;50.272;19.026;2023-06-22T11:39:37;50.81;41.66;60.47;;
76338;Laerm;20358;50.272;19.026;2023-06-22T11:42:59;53.40;41.65;69.88;;
76338;Laerm;20358;50.272;19.026;2023-06-22T11:46:10;51.32;40.64;69.16;;
76338;Laerm;20358;50.272;19.026;2023-06-22T11:49:20;50.97;42.78;62.99;;
76338;Laerm;20358;50.272;19.026;2023-06-22T11:52:31;49.59;42.90;62.50;;
76338;Laerm;20358;50.272;19.026;2023-06-22T11:55:52;50.42;42.03;57.87;;
76338;Laerm;20358;50.272;19.026;2023-06-22T11:59:01;49.43;41.25;60.10;;
76338;Laerm;20358;50.272;19.026;2023-06-22T12:02:15;58.64;40.94;80.22;;
76338;Laerm;20358;50.272;19.026;2023-06-22T12:05:32;49.97;43.55;60.32;;
76338;Laerm;20358;50.272;19.026;2023-06-22T12:08:46;49.56;42.22;56.52;;
76338;Laerm;20358;50.272;19.026;2023-06-22T12:11:57;52.35;46.12;68.19;;
76338;Laerm;20358;50.272;19.026;2023-06-22T12:15:07;50.28;43.86;57.66;;
76338;Laerm;20358;50.272;19.026;2023-06-22T12:18:17;52.71;43.05;65.40;;
76338;Laerm;20358;50.272;19.026;2023-06-22T12:21:29;50.71;41.99;63.86;;
76338;Laerm;20358;50.272;19.026;2023-06-22T12:24:39;50.80;44.09;59.58;;
76338;Laerm;20358;50.272;19.026;2023-06-22T12:27:50;53.36;43.81;75.23;;
76338;Laerm;20358;50.272;19.026;2023-06-22T12:30:59;51.25;41.70;68.34;;
76338;Laerm;20358;50.272;19.026;2023-06-22T12:34:13;54.72;44.42;74.78;;
76338;Laerm;20358;50.272;19.026;2023-06-22T12:37:21;52.65;44.96;74.63;;
76338;Laerm;20358;50.272;19.026;2023-06-22T12:40:31;52.20;43.71;70.00;;
76338;Laerm;20358;50.272;19.026;2023-06-22T12:44:12;52.71;43.52;68.08;;
76338;Laerm;20358;50.272;19.026;2023-06-22T12:47:45;52.29;44.20;63.18;;
76338;Laerm;20358;50.272;19.026;2023-06-22T12:50:54;54.50;44.28;68.27;;
76338;Laerm;20358;50.272;19.026;2023-06-22T12:54:07;53.28;42.85;70.18;;
76338;Laerm;20358;50.272;19.026;2023-06-22T12:57:15;51.02;41.03;58.71;;
76338;Laerm;20358;50.272;19.026;2023-06-22T13:00:23;55.06;43.28;65.98;;
76338;Laerm;20358;50.272;19.026;2023-06-22T13:03:34;51.93;42.47;61.73;;
76338;Laerm;20358;50.272;19.026;2023-06-22T13:06:45;51.69;42.84;61.43;;
76338;Laerm;20358;50.272;19.026;2023-06-22T13:09:56;53.41;45.95;61.75;;
76338;Laerm;20358;50.272;19.026;2023-06-22T13:13:08;60.22;43.95;83.29;;
76338;Laerm;20358;50.272;19.026;2023-06-22T13:16:17;52.39;42.85;62.48;;
76338;Laerm;20358;50.272;19.026;2023-06-22T13:19:27;52.60;43.89;62.13;;
76338;Laerm;20358;50.272;19.026;2023-06-22T13:22:37;51.54;40.55;61.28;;
76338;Laerm;20358;50.272;19.026;2023-06-22T13:25:49;53.34;39.86;65.61;;
76338;Laerm;20358;50.272;19.026;2023-06-22T13:29:00;52.66;41.98;65.97;;
76338;Laerm;20358;50.272;19.026;2023-06-22T13:32:09;52.17;41.07;61.88;;
76338;Laerm;20358;50.272;19.026;2023-06-22T13:35:20;53.16;42.48;72.82;;
76338;Laerm;20358;50.272;19.026;2023-06-22T13:38:27;52.61;43.71;64.05;;
76338;Laerm;20358;50.272;19.026;2023-06-22T13:41:36;51.60;43.32;61.16;;
76338;Laerm;20358;50.272;19.026;2023-06-22T13:44:49;53.51;41.79;65.13;;
76338;Laerm;20358;50.272;19.026;2023-06-22T13:47:59;53.03;43.32;64.19;;
76338;Laerm;20358;50.272;19.026;2023-06-22T13:51:13;53.65;45.24;64.64;;
76338;Laerm;20358;50.272;19.026;2023-06-22T13:54:23;53.06;42.35;64.12;;
76338;Laerm;20358;50.272;19.026;2023-06-22T13:57:34;52.63;43.56;62.45;;
76338;Laerm;20358;50.272;19.026;2023-06-22T14:00:44;54.26;41.77;75.25;;
76338;Laerm;20358;50.272;19.026;2023-06-22T14:03:59;53.82;42.04;65.52;;
76338;Laerm;20358;50.272;19.026;2023-06-22T14:07:17;50.84;41.69;60.29;;
76338;Laerm;20358;50.272;19.026;2023-06-22T14:10:25;52.71;42.75;61.51;;
76338;Laerm;20358;50.272;19.026;2023-06-22T14:13:33;52.96;44.24;66.70;;
76338;Laerm;20358;50.272;19.026;2023-06-22T14:16:43;52.28;42.78;64.34;;
76338;Laerm;20358;50.272;19.026;2023-06-22T14:19:54;52.70;43.37;65.63;;
76338;Laerm;20358;50.272;19.026;2023-06-22T14:23:06;50.56;42.25;61.90;;
76338;Laerm;20358;50.272;19.026;2023-06-22T14:26:15;54.87;44.90;67.66;;
76338;Laerm;20358;50.272;19.026;2023-06-22T14:29:26;53.14;42.89;67.04;;
76338;Laerm;20358;50.272;19.026;2023-06-22T14:32:34;51.79;42.34;61.89;;
76338;Laerm;20358;50.272;19.026;2023-06-22T14:35:42;52.75;45.28;62.61;;
76338;Laerm;20358;50.272;19.026;2023-06-22T14:38:54;55.85;42.74;79.28;;
76338;Laerm;20358;50.272;19.026;2023-06-22T14:42:08;53.31;44.04;63.69;;
76338;Laerm;20358;50.272;19.026;2023-06-22T14:45:20;52.28;42.21;61.34;;
76338;Laerm;20358;50.272;19.026;2023-06-22T14:48:30;51.86;40.01;60.13;;
76338;Laerm;20358;50.272;19.026;2023-06-22T14:51:43;52.65;41.90;64.97;;
76338;Laerm;20358;50.272;19.026;2023-06-22T14:54:53;52.69;40.72;65.94;;
76338;Laerm;20358;50.272;19.026;2023-06-22T14:58:01;51.76;40.62;68.24;;
76338;Laerm;20358;50.272;19.026;2023-06-22T15:01:08;51.99;40.50;62.03;;
76338;Laerm;20358;50.272;19.026;2023-06-22T15:04:19;52.67;42.98;63.62;;
76338;Laerm;20358;50.272;19.026;2023-06-22T15:07:30;52.29;43.28;62.59;;
76338;Laerm;20358;50.272;19.026;2023-06-22T15:10:42;52.44;43.17;66.19;;
76338;Laerm;20358;50.272;19.026;2023-06-22T15:13:51;52.72;42.26;64.13;;
76338;Laerm;20358;50.272;19.026;2023-06-22T15:17:01;52.05;40.90;61.18;;
76338;Laerm;20358;50.272;19.026;2023-06-22T15:20:12;51.58;40.97;63.50;;
76338;Laerm;20358;50.272;19.026;2023-06-22T15:23:26;51.41;42.89;62.02;;
76338;Laerm;20358;50.272;19.026;2023-06-22T15:26:39;52.20;41.91;62.24;;
76338;Laerm;20358;50.272;19.026;2023-06-22T15:29:48;50.65;40.08;60.97;;
76338;Laerm;20358;50.272;19.026;2023-06-22T15:33:01;52.25;42.17;66.09;;
76338;Laerm;20358;50.272;19.026;2023-06-22T15:36:11;52.49;42.06;68.47;;
76338;Laerm;20358;50.272;19.026;2023-06-22T15:39:23;52.26;41.24;63.11;;
76338;Laerm;20358;50.272;19.026;2023-06-22T15:42:36;51.75;44.19;61.92;;
76338;Laerm;20358;50.272;19.026;2023-06-22T15:45:48;51.41;42.87;60.83;;
76338;Laerm;20358;50.272;19.026;2023-06-22T15:48:58;50.48;42.33;62.01;;
76338;Laerm;20358;50.272;19.026;2023-06-22T15:52:06;52.47;41.00;67.22;;
76338;Laerm;20358;50.272;19.026;2023-06-22T15:55:15;53.51;42.06;80.09;;
76338;Laerm;20358;50.272;19.026;2023-06-22T15:58:28;56.66;40.65;78.79;;
76338;Laerm;20358;50.272;19.026;2023-06-22T16:01:36;50.93;42.37;60.38;;
76338;Laerm;20358;50.272;19.026;2023-06-22T16:04:49;50.90;42.56;59.09;;
76338;Laerm;20358;50.272;19.026;2023-06-22T16:07:59;51.14;41.76;60.61;;
76338;Laerm;20358;50.272;19.026;2023-06-22T16:11:08;51.67;40.05;64.06;;
76338;Laerm;20358;50.272;19.026;2023-06-22T16:14:19;52.41;42.56;62.51;;
76338;Laerm;20358;50.272;19.026;2023-06-22T16:17:26;50.28;41.48;63.37;;
76338;Laerm;20358;50.272;19.026;2023-06-22T16:20:39;52.12;42.68;60.69;;
76338;Laerm;20358;50.272;19.026;2023-06-22T16:23:49;51.97;43.06;62.88;;
76338;Laerm;20358;50.272;19.026;2023-06-22T16:26:58;54.02;42.48;69.89;;
76338;Laerm;20358;50.272;19.026;2023-06-22T16:30:15;53.87;41.56;71.09;;
76338;Laerm;20358;50.272;19.026;2023-06-22T16:33:24;49.95;41.45;59.69;;
76338;Laerm;20358;50.272;19.026;2023-06-22T16:36:34;52.29;44.06;64.20;;
76338;Laerm;20358;50.272;19.026;2023-06-22T16:39:46;50.45;42.22;62.53;;
76338;Laerm;20358;50.272;19.026;2023-06-22T16:42:54;52.48;41.95;66.82;;
76338;Laerm;20358;50.272;19.026;2023-06-22T16:46:11;51.04;41.58;61.51;;
76338;Laerm;20358;50.272;19.026;2023-06-22T16:49:19;51.81;44.47;61.68;;
76338;Laerm;20358;50.272;19.026;2023-06-22T16:52:27;51.93;41.04;68.11;;
76338;Laerm;20358;50.272;19.026;2023-06-22T16:55:49;51.63;40.28;63.67;;
76338;Laerm;20358;50.272;19.026;2023-06-22T16:59:02;51.18;40.65;64.15;;
76338;Laerm;20358;50.272;19.026;2023-06-22T17:02:19;53.82;40.80;73.32;;
76338;Laerm;20358;50.272;19.026;2023-06-22T17:05:32;48.97;40.77;58.13;;
76338;Laerm;20358;50.272;19.026;2023-06-22T17:08:46;53.83;42.48;68.32;;
76338;Laerm;20358;50.272;19.026;2023-06-22T17:11:55;52.99;41.92;68.99;;
76338;Laerm;20358;50.272;19.026;2023-06-22T17:15:04;49.37;40.68;62.64;;
76338;Laerm;20358;50.272;19.026;2023-06-22T17:18:20;51.67;41.15;64.32;;
76338;Laerm;20358;50.272;19.026;2023-06-22T17:21:29;51.74;41.04;61.54;;
76338;Laerm;20358;50.272;19.026;2023-06-22T17:24:40;51.58;40.50;62.42;;
76338;Laerm;20358;50.272;19.026;2023-06-22T17:27:49;49.79;40.63;59.79;;
76338;Laerm;20358;50.272;19.026;2023-06-22T17:31:10;53.81;40.12;68.72;;
76338;Laerm;20358;50.272;19.026;2023-06-22T17:34:21;50.65;39.97;63.86;;
76338;Laerm;20358;50.272;19.026;2023-06-22T17:37:49;51.04;42.12;65.28;;
76338;Laerm;20358;50.272;19.026;2023-06-22T17:41:00;51.60;41.24;61.83;;
76338;Laerm;20358;50.272;19.026;2023-06-22T17:44:19;49.56;39.72;61.01;;
76338;Laerm;20358;50.272;19.026;2023-06-22T17:47:26;50.23;39.74;64.91;;
76338;Laerm;20358;50.272;19.026;2023-06-22T17:50:39;51.00;40.14;64.24;;